Time;durP1;ratioP1;P1;durP2;ratioP2;P2;SDS_P1;SDS_P2;PMS_P1;PMS_P2;Temp;Humidity;BMP_temperature;BMP_pressure;BME280_temperature;BME280_humidity;BME280_pressure;Samples;Min_cycle;Max_cycle;Signal;HPM_P1;HPM_P2
2021/10/07 00:01:50;;;;;;;5.95;1.70;;;10.10;94.30;;;;;;4877977;29;20406;-91
2021/10/07 00:04:16;;;;;;;3.45;1.42;;;10.10;94.30;;;;;;4878075;29;20052;-90
2021/10/07 00:06:42;;;;;;;5.20;1.67;;;10.00;94.30;;;;;;4877727;29;20040;-90
2021/10/07 00:09:08;;;;;;;3.72;1.48;;;10.00;94.20;;;;;;4877929;29;20033;-91
2021/10/07 00:11:34;;;;;;;2.75;1.55;;;10.00;94.30;;;;;;4877255;29;20059;-91
2021/10/07 00:14:03;;;;;;;2.58;1.52;;;10.00;94.40;;;;;;4876713;29;20056;-91
2021/10/07 00:16:29;;;;;;;1.95;1.40;;;10.00;94.50;;;;;;4872952;29;20028;-91
2021/10/07 00:18:55;;;;;;;3.25;1.45;;;10.00;94.50;;;;;;4877506;29;20030;-90
2021/10/07 00:21:21;;;;;;;3.22;1.60;;;10.00;94.50;;;;;;4877131;29;20049;-91
2021/10/07 00:26:28;;;;;;;2.38;1.60;;;10.00;94.60;;;;;;4878420;29;20169;-91
2021/10/07 00:28:59;;;;;;;4.78;1.50;;;10.00;94.50;;;;;;4876731;29;20060;-90
2021/10/07 00:31:28;;;;;;;2.80;1.70;;;10.00;94.50;;;;;;4876850;29;20041;-91
2021/10/07 00:36:38;;;;;;;3.92;1.42;;;10.00;94.60;;;;;;4882200;29;20029;-90
2021/10/07 00:39:05;;;;;;;2.85;1.70;;;10.00;94.70;;;;;;4881128;29;20032;-91
2021/10/07 00:41:39;;;;;;;4.00;2.10;;;10.10;94.70;;;;;;4881265;29;20029;-91
2021/10/07 00:44:10;;;;;;;1.70;1.60;;;10.10;94.70;;;;;;4875901;29;20135;-90
2021/10/07 00:47:00;;;;;;;2.30;1.88;;;10.10;94.70;;;;;;4877813;29;20121;-91
2021/10/07 00:49:28;;;;;;;6.28;2.20;;;10.10;94.80;;;;;;4880879;29;20032;-91
2021/10/07 00:51:55;;;;;;;4.60;1.73;;;10.10;94.70;;;;;;4875952;29;20058;-91
2021/10/07 00:54:25;;;;;;;2.72;1.90;;;10.10;94.70;;;;;;4866647;29;20110;-91
2021/10/07 00:56:52;;;;;;;2.25;1.70;;;10.10;94.70;;;;;;4862812;29;20037;-91
2021/10/07 00:59:18;;;;;;;2.33;1.95;;;10.10;94.70;;;;;;4872652;29;20037;-91
2021/10/07 01:01:44;;;;;;;4.20;2.10;;;10.10;94.70;;;;;;4881146;29;20100;-91
2021/10/07 01:04:14;;;;;;;3.90;1.73;;;10.10;94.70;;;;;;4880354;29;20124;-92
2021/10/07 01:06:42;;;;;;;4.50;2.17;;;10.10;94.80;;;;;;4880387;29;20116;-91
2021/10/07 01:09:10;;;;;;;2.45;1.80;;;10.10;94.80;;;;;;4881130;29;20037;-91
2021/10/07 01:11:36;;;;;;;3.65;1.85;;;10.10;94.80;;;;;;4880985;29;20036;-90
2021/10/07 01:14:01;;;;;;;3.72;1.67;;;10.10;94.80;;;;;;4872613;29;20033;-91
2021/10/07 01:16:27;;;;;;;2.83;2.20;;;10.10;94.90;;;;;;4880321;29;20032;-90
2021/10/07 01:18:53;;;;;;;3.30;1.88;;;10.10;94.90;;;;;;4873202;29;20486;-92
2021/10/07 01:21:20;;;;;;;3.65;1.80;;;10.10;94.90;;;;;;4880121;29;20036;-90
2021/10/07 01:23:47;;;;;;;3.17;1.90;;;10.10;95.10;;;;;;4879553;29;20478;-91
2021/10/07 01:26:15;;;;;;;4.68;2.28;;;10.20;95.00;;;;;;4878755;29;20414;-91
2021/10/07 01:28:44;;;;;;;2.65;2.00;;;10.20;95.00;;;;;;4873778;29;20029;-91
2021/10/07 01:31:10;;;;;;;2.75;1.90;;;10.20;94.90;;;;;;4871745;29;20033;-91
2021/10/07 01:33:36;;;;;;;4.93;2.42;;;10.20;94.90;;;;;;4869257;29;20032;-91
2021/10/07 01:36:02;;;;;;;2.70;2.17;;;10.20;95.00;;;;;;4869248;29;20112;-90
2021/10/07 01:38:28;;;;;;;2.63;1.92;;;10.20;95.00;;;;;;4865235;29;20029;-91
2021/10/07 01:40:55;;;;;;;3.47;1.90;;;10.20;95.00;;;;;;4879614;29;20025;-91
2021/10/07 01:43:21;;;;;;;5.60;2.45;;;10.20;95.00;;;;;;4879520;29;20025;-90
2021/10/07 01:45:48;;;;;;;2.95;1.83;;;10.20;95.00;;;;;;4878354;29;20029;-90
2021/10/07 01:48:15;;;;;;;4.20;2.25;;;10.30;95.00;;;;;;4894539;29;20033;-91
2021/10/07 01:50:40;;;;;;;4.30;2.40;;;10.20;95.00;;;;;;4879927;29;20079;-90
2021/10/07 01:53:06;;;;;;;3.30;2.13;;;10.20;94.90;;;;;;4879575;29;20052;-91
2021/10/07 01:55:32;;;;;;;2.38;2.03;;;10.30;95.00;;;;;;4880284;29;20447;-91
2021/10/07 01:57:58;;;;;;;3.55;2.03;;;10.20;94.90;;;;;;4879811;29;20112;-91
2021/10/07 02:00:23;;;;;;;3.45;2.20;;;10.20;95.00;;;;;;4880053;29;20635;-90
2021/10/07 02:02:49;;;;;;;2.60;2.10;;;10.20;95.00;;;;;;4879788;29;20025;-91
2021/10/07 02:05:15;;;;;;;3.60;2.28;;;10.20;94.90;;;;;;4880724;29;20029;-91
2021/10/07 02:07:41;;;;;;;3.70;2.20;;;10.10;94.90;;;;;;4882861;29;20029;-91
2021/10/07 02:10:14;;;;;;;6.70;2.30;;;10.20;95.00;;;;;;4880500;29;20037;-91
2021/10/07 02:12:40;;;;;;;4.88;2.50;;;10.20;95.10;;;;;;4879462;29;20029;-90
2021/10/07 02:15:07;;;;;;;3.10;2.00;;;10.20;95.10;;;;;;4893458;29;20052;-91
2021/10/07 02:17:32;;;;;;;5.53;2.25;;;10.20;95.10;;;;;;4892582;29;20041;-90
2021/10/07 02:19:58;;;;;;;4.60;2.30;;;10.30;95.20;;;;;;4884253;29;20096;-90
2021/10/07 02:22:24;;;;;;;4.78;2.40;;;10.30;95.20;;;;;;4864796;29;20030;-91
2021/10/07 02:24:49;;;;;;;3.72;2.00;;;10.30;95.20;;;;;;4860792;29;20398;-91
2021/10/07 02:27:15;;;;;;;3.85;2.17;;;10.30;95.20;;;;;;4878006;29;20037;-91
2021/10/07 02:29:44;;;;;;;3.35;2.35;;;10.30;95.20;;;;;;4879960;29;20037;-91
2021/10/07 02:32:09;;;;;;;3.38;2.42;;;10.30;95.20;;;;;;4880080;29;20029;-91
2021/10/07 02:34:35;;;;;;;2.80;1.85;;;10.30;95.10;;;;;;4887313;29;20037;-90
2021/10/07 02:37:01;;;;;;;4.40;2.00;;;10.40;95.10;;;;;;4890355;29;20530;-91
2021/10/07 02:39:26;;;;;;;2.38;2.13;;;10.30;95.10;;;;;;4883052;29;20439;-90
2021/10/07 02:41:52;;;;;;;2.67;2.10;;;10.30;95.10;;;;;;4878186;29;20382;-91
2021/10/07 02:44:18;;;;;;;4.00;1.95;;;10.30;95.10;;;;;;4878411;29;20033;-91
2021/10/07 02:46:43;;;;;;;4.32;1.90;;;10.30;95.20;;;;;;4878597;29;20085;-90
2021/10/07 02:49:09;;;;;;;2.70;2.00;;;10.30;95.10;;;;;;4878782;29;20057;-91
2021/10/07 02:51:34;;;;;;;5.07;2.30;;;10.30;95.10;;;;;;4878518;29;20025;-91
2021/10/07 02:54:00;;;;;;;3.20;2.25;;;10.40;95.20;;;;;;4878167;29;20037;-90
2021/10/07 02:56:26;;;;;;;3.75;2.35;;;10.30;95.20;;;;;;4878485;29;20037;-91
2021/10/07 02:58:51;;;;;;;3.47;2.28;;;10.30;95.20;;;;;;4878465;29;20041;-90
2021/10/07 03:01:17;;;;;;;5.32;2.40;;;10.30;95.20;;;;;;4879806;29;20018;-90
2021/10/07 03:03:43;;;;;;;2.90;2.40;;;10.40;95.30;;;;;;4878623;29;20098;-91
2021/10/07 03:06:08;;;;;;;4.45;2.63;;;10.40;95.30;;;;;;4878372;29;20044;-91
2021/10/07 03:08:34;;;;;;;2.40;2.20;;;10.40;95.20;;;;;;4880810;29;20093;-90
2021/10/07 03:11:00;;;;;;;3.65;2.40;;;10.30;95.30;;;;;;4883717;29;20507;-91
2021/10/07 03:13:27;;;;;;;2.72;2.13;;;10.30;95.10;;;;;;4863013;29;20034;-89
2021/10/07 03:15:53;;;;;;;4.70;2.35;;;10.30;95.20;;;;;;4869947;29;20032;-90
2021/10/07 03:18:19;;;;;;;3.15;2.50;;;10.30;95.20;;;;;;4875060;29;20086;-90
2021/10/07 03:20:45;;;;;;;2.47;2.28;;;10.40;95.20;;;;;;4878857;29;20490;-91
2021/10/07 03:23:10;;;;;;;6.53;3.22;;;10.30;95.20;;;;;;4878209;29;20078;-90
2021/10/07 03:25:36;;;;;;;2.60;2.40;;;10.30;95.30;;;;;;4878497;29;20059;-91
2021/10/07 03:28:02;;;;;;;2.65;2.13;;;10.40;95.30;;;;;;4878593;29;20040;-90
2021/10/07 03:30:28;;;;;;;4.10;2.72;;;10.40;95.40;;;;;;4878963;29;20273;-92
2021/10/07 03:32:54;;;;;;;4.95;2.90;;;10.40;95.30;;;;;;4877881;29;20029;-91
2021/10/07 03:35:20;;;;;;;4.28;2.85;;;10.40;95.30;;;;;;4878601;29;20043;-91
2021/10/07 03:37:46;;;;;;;3.08;2.60;;;10.40;95.30;;;;;;4878074;29;20036;-91
2021/10/07 03:40:12;;;;;;;3.85;2.53;;;10.40;95.30;;;;;;4877913;29;20029;-90
2021/10/07 03:42:38;;;;;;;4.45;3.00;;;10.40;95.20;;;;;;4877346;29;20017;-90
2021/10/07 03:45:06;;;;;;;4.38;2.80;;;10.40;95.20;;;;;;4877698;29;20077;-90
2021/10/07 03:47:31;;;;;;;4.85;3.05;;;10.30;95.20;;;;;;4878687;29;20025;-90
2021/10/07 03:49:57;;;;;;;5.18;3.35;;;10.40;95.30;;;;;;4877586;29;20512;-90
2021/10/07 03:52:24;;;;;;;4.53;3.13;;;10.30;95.20;;;;;;4877496;29;20033;-91
2021/10/07 03:54:50;;;;;;;5.72;3.42;;;10.30;95.30;;;;;;4876716;29;20021;-90
2021/10/07 03:57:16;;;;;;;7.10;2.90;;;10.30;95.30;;;;;;4864813;29;20399;-91
2021/10/07 03:59:41;;;;;;;4.90;3.20;;;10.30;95.30;;;;;;4859700;29;20386;-90
2021/10/07 04:02:08;;;;;;;3.42;3.10;;;10.30;95.20;;;;;;4859698;29;20053;-90
2021/10/07 04:04:34;;;;;;;4.38;3.00;;;10.30;95.20;;;;;;4867122;29;20025;-91
2021/10/07 04:06:59;;;;;;;7.38;3.08;;;10.20;95.20;;;;;;4877833;29;20399;-91
2021/10/07 04:09:25;;;;;;;6.63;3.13;;;10.20;95.20;;;;;;4876981;29;20550;-90
2021/10/07 04:11:51;;;;;;;4.43;2.72;;;10.20;95.30;;;;;;4869988;29;20421;-90
2021/10/07 04:14:16;;;;;;;4.93;2.97;;;10.20;95.40;;;;;;4865061;29;20562;-90
2021/10/07 04:16:42;;;;;;;3.72;2.63;;;10.20;95.40;;;;;;4877074;29;20111;-90
2021/10/07 04:19:08;;;;;;;3.55;2.78;;;10.20;95.40;;;;;;4872040;29;20017;-90
2021/10/07 04:21:34;;;;;;;4.65;3.00;;;10.20;95.50;;;;;;4877974;29;20092;-90
2021/10/07 04:23:59;;;;;;;3.90;2.42;;;10.20;95.50;;;;;;4878578;29;20021;-91
2021/10/07 04:26:27;;;;;;;4.95;2.65;;;10.20;95.50;;;;;;4879417;29;20040;-91
2021/10/07 04:28:52;;;;;;;4.05;2.78;;;10.20;95.50;;;;;;4878544;29;20040;-91
2021/10/07 04:31:18;;;;;;;3.13;2.75;;;10.20;95.50;;;;;;4897540;29;20037;-89
2021/10/07 04:33:44;;;;;;;3.05;2.60;;;10.20;95.50;;;;;;4896890;29;20033;-90
2021/10/07 04:36:10;;;;;;;5.43;3.17;;;10.30;95.60;;;;;;4898414;29;20134;-90
2021/10/07 04:38:36;;;;;;;3.78;2.90;;;10.30;95.60;;;;;;4894154;29;20081;-91
2021/10/07 04:41:02;;;;;;;3.67;2.78;;;10.30;95.60;;;;;;4878269;29;20156;-91
2021/10/07 04:43:28;;;;;;;4.00;2.90;;;10.30;95.60;;;;;;4873153;29;20499;-91
2021/10/07 04:45:53;;;;;;;4.68;3.10;;;10.30;95.60;;;;;;4876177;29;20032;-90
2021/10/07 04:48:24;;;;;;;4.15;2.90;;;10.30;95.50;;;;;;4878742;29;20036;-91
2021/10/07 04:50:49;;;;;;;3.78;2.85;;;10.30;95.60;;;;;;4878454;29;20438;-90
2021/10/07 04:53:15;;;;;;;3.33;2.85;;;10.30;95.60;;;;;;4878330;29;20097;-91
2021/10/07 04:55:41;;;;;;;3.08;2.70;;;10.20;95.60;;;;;;4879066;29;20116;-90
2021/10/07 04:58:06;;;;;;;7.45;3.10;;;10.20;95.60;;;;;;4878524;29;20050;-91
2021/10/07 05:00:32;;;;;;;7.03;3.03;;;10.30;95.70;;;;;;4880351;29;20093;-90
2021/10/07 05:02:58;;;;;;;6.18;3.22;;;10.30;95.70;;;;;;4878669;29;20025;-90
2021/10/07 05:05:24;;;;;;;3.17;2.83;;;10.20;95.70;;;;;;4878793;29;20029;-90
2021/10/07 05:07:50;;;;;;;4.25;3.30;;;10.30;95.70;;;;;;4883406;29;20044;-91
2021/10/07 05:10:16;;;;;;;3.60;3.30;;;10.30;95.70;;;;;;4880024;29;20502;-90
2021/10/07 05:12:41;;;;;;;5.63;3.40;;;10.40;95.80;;;;;;4871453;29;20034;-91
2021/10/07 05:15:10;;;;;;;6.35;3.83;;;10.30;95.70;;;;;;4873841;29;20029;-91
2021/10/07 05:17:36;;;;;;;5.95;3.47;;;10.30;95.70;;;;;;4869351;29;20402;-90
2021/10/07 05:20:04;;;;;;;6.25;3.75;;;10.40;95.70;;;;;;4861352;29;20112;-91
2021/10/07 05:22:30;;;;;;;5.07;4.20;;;10.40;95.70;;;;;;4875841;29;20033;-90
2021/10/07 05:24:55;;;;;;;3.72;3.42;;;10.40;95.70;;;;;;4882287;29;20449;-91
2021/10/07 05:27:21;;;;;;;4.85;3.38;;;10.40;95.60;;;;;;4874132;29;20025;-92
2021/10/07 05:29:47;;;;;;;4.35;3.47;;;10.30;95.60;;;;;;4880687;29;20036;-91
2021/10/07 05:32:12;;;;;;;5.57;3.58;;;10.40;95.60;;;;;;4882087;29;20056;-92
2021/10/07 05:34:38;;;;;;;5.93;3.50;;;10.40;95.60;;;;;;4881534;29;20083;-90
2021/10/07 05:37:04;;;;;;;5.20;3.45;;;10.40;95.60;;;;;;4882716;23;20487;-84
2021/10/07 05:39:29;;;;;;;11.93;7.78;;;10.40;95.70;;;;;;4883656;29;20036;-85
2021/10/07 05:41:55;;;;;;;7.25;4.03;;;10.40;95.70;;;;;;4879600;29;20034;-86
2021/10/07 05:44:21;;;;;;;5.97;3.65;;;10.40;95.70;;;;;;4867230;29;20399;-83
2021/10/07 05:46:47;;;;;;;5.63;3.30;;;10.40;95.70;;;;;;4869693;29;20040;-84
2021/10/07 05:49:14;;;;;;;5.28;3.90;;;10.40;95.70;;;;;;4884534;29;20109;-85
2021/10/07 05:51:41;;;;;;;7.45;3.90;;;10.40;95.70;;;;;;4885276;29;20033;-85
2021/10/07 05:54:07;;;;;;;8.68;3.95;;;10.50;95.70;;;;;;4883974;29;20085;-84
2021/10/07 05:56:32;;;;;;;9.13;4.40;;;10.40;95.90;;;;;;4883204;29;20033;-84
2021/10/07 05:58:58;;;;;;;4.78;3.20;;;10.40;95.70;;;;;;4885067;29;20044;-86
2021/10/07 06:01:24;;;;;;;4.93;3.40;;;10.40;95.70;;;;;;4883368;29;20029;-85
2021/10/07 06:03:49;;;;;;;4.45;3.55;;;10.40;95.60;;;;;;4881875;29;20028;-85
2021/10/07 06:06:15;;;;;;;4.63;2.88;;;10.40;95.70;;;;;;4883389;29;20032;-85
2021/10/07 06:08:40;;;;;;;3.88;3.40;;;10.40;95.70;;;;;;4873160;29;20059;-87
2021/10/07 06:11:06;;;;;;;7.28;3.28;;;10.50;95.80;;;;;;4866105;29;20034;-85
2021/10/07 06:13:32;;;;;;;9.50;3.53;;;10.50;95.70;;;;;;4881456;29;20037;-86
2021/10/07 06:15:57;;;;;;;5.75;3.53;;;10.50;95.60;;;;;;4887986;29;20068;-85
2021/10/07 06:18:23;;;;;;;6.88;3.60;;;10.40;95.60;;;;;;4878116;29;20108;-84
2021/10/07 06:20:49;;;;;;;4.65;3.53;;;10.40;95.60;;;;;;4882605;29;20053;-87
2021/10/07 06:23:14;;;;;;;5.72;3.78;;;10.40;95.60;;;;;;4883275;29;20141;-88
2021/10/07 06:25:40;;;;;;;8.05;3.65;;;10.40;95.90;;;;;;4879899;29;20036;-88
2021/10/07 06:28:07;;;;;;;9.30;3.30;;;10.40;95.60;;;;;;4880139;29;20140;-85
2021/10/07 06:30:34;;;;;;;5.70;3.90;;;10.30;95.60;;;;;;4884473;29;20052;-86
2021/10/07 06:33:00;;;;;;;5.45;3.75;;;10.30;95.60;;;;;;4883482;29;20033;-85
2021/10/07 06:35:26;;;;;;;7.63;3.78;;;10.40;95.70;;;;;;4883426;29;20190;-87
2021/10/07 06:37:52;;;;;;;6.63;4.00;;;10.30;95.60;;;;;;4878943;29;20033;-85
2021/10/07 06:40:18;;;;;;;4.78;3.60;;;10.30;95.60;;;;;;4873974;29;20033;-85
2021/10/07 06:42:43;;;;;;;4.30;3.10;;;10.30;95.70;;;;;;4876439;29;20029;-86
2021/10/07 06:45:10;;;;;;;4.57;3.38;;;10.40;95.70;;;;;;4868967;29;20087;-86
2021/10/07 06:47:36;;;;;;;7.40;3.40;;;10.30;95.80;;;;;;4869599;29;20017;-84
2021/10/07 06:50:04;;;;;;;5.43;2.80;;;10.40;95.70;;;;;;4882523;29;20071;-87
2021/10/07 06:52:30;;;;;;;5.30;3.10;;;10.40;95.70;;;;;;4882689;29;20021;-84
2021/10/07 06:54:56;;;;;;;3.88;3.15;;;10.40;95.70;;;;;;4883399;29;20025;-86
2021/10/07 06:57:21;;;;;;;4.32;3.33;;;10.40;95.80;;;;;;4883575;29;20061;-87
2021/10/07 06:59:47;;;;;;;3.20;2.72;;;10.40;95.70;;;;;;4883973;29;20052;-84
2021/10/07 07:02:12;;;;;;;5.43;3.38;;;10.40;95.60;;;;;;4884802;29;20491;-86
2021/10/07 07:04:38;;;;;;;5.65;3.13;;;10.50;95.60;;;;;;4883484;29;20093;-83
2021/10/07 07:07:04;;;;;;;5.80;3.55;;;10.50;95.70;;;;;;4883512;29;20239;-86
2021/10/07 07:09:29;;;;;;;4.57;3.33;;;10.50;95.80;;;;;;4883941;29;20538;-85
2021/10/07 07:11:55;;;;;;;4.72;3.50;;;10.60;95.80;;;;;;4882990;29;20059;-85
2021/10/07 07:14:20;;;;;;;7.47;4.28;;;10.70;95.80;;;;;;4869149;29;20037;-83
2021/10/07 07:16:46;;;;;;;7.68;4.78;;;10.60;95.80;;;;;;4878935;29;20033;-86
2021/10/07 07:19:12;;;;;;;5.38;4.40;;;10.70;95.70;;;;;;4876838;29;20036;-86
2021/10/07 07:21:38;;;;;;;6.30;4.00;;;10.80;95.70;;;;;;4883043;29;20329;-85
2021/10/07 07:24:04;;;;;;;4.25;3.60;;;10.80;95.80;;;;;;4881565;29;20527;-85
2021/10/07 07:26:31;;;;;;;6.32;4.38;;;10.80;95.90;;;;;;4882142;29;20035;-85
2021/10/07 07:28:58;;;;;;;6.20;4.50;;;10.80;95.80;;;;;;4881533;29;20033;-84
2021/10/07 07:31:25;;;;;;;11.98;5.05;;;10.90;95.70;;;;;;4879299;29;20029;-85
2021/10/07 07:33:51;;;;;;;8.32;4.60;;;10.90;95.70;;;;;;4879564;29;20441;-86
2021/10/07 07:36:18;;;;;;;7.32;4.90;;;10.90;95.70;;;;;;4881315;29;20052;-85
2021/10/07 07:38:44;;;;;;;8.80;5.75;;;10.90;95.80;;;;;;4880962;29;20033;-85
2021/10/07 07:41:11;;;;;;;10.32;6.07;;;11.00;95.80;;;;;;4879582;29;20033;-87
2021/10/07 07:43:38;;;;;;;9.75;6.45;;;11.00;95.80;;;;;;4866132;29;20025;-87
2021/10/07 07:46:03;;;;;;;9.60;7.20;;;11.00;95.80;;;;;;4869615;29;20112;-84
2021/10/07 07:48:29;;;;;;;13.40;7.15;;;11.00;95.70;;;;;;4879207;29;20124;-83
2021/10/07 07:50:55;;;;;;;9.50;6.25;;;11.00;95.80;;;;;;4880339;29;20033;-85
2021/10/07 07:53:20;;;;;;;23.00;14.95;;;11.00;95.80;;;;;;4881298;29;20141;-87
2021/10/07 07:55:46;;;;;;;13.80;8.20;;;11.10;95.80;;;;;;4880187;29;20137;-86
2021/10/07 07:58:12;;;;;;;8.13;6.80;;;11.10;95.80;;;;;;4881030;29;20033;-85
2021/10/07 08:00:39;;;;;;;10.52;6.93;;;11.30;95.70;;;;;;4879393;29;20509;-84
2021/10/07 08:03:05;;;;;;;13.60;8.10;;;11.30;95.80;;;;;;4879302;29;20104;-84
2021/10/07 08:05:31;;;;;;;15.35;9.70;;;11.30;95.80;;;;;;4877900;29;20029;-86
2021/10/07 08:07:56;;;;;;;11.73;9.02;;;11.40;95.80;;;;;;4877847;29;20073;-86
2021/10/07 08:10:22;;;;;;;9.52;7.50;;;11.40;95.70;;;;;;4876890;29;20397;-84
2021/10/07 08:12:48;;;;;;;10.68;9.25;;;11.50;95.70;;;;;;4870441;29;20431;-86
2021/10/07 08:15:14;;;;;;;11.07;7.95;;;11.60;95.70;;;;;;4870115;29;20037;-85
2021/10/07 08:17:40;;;;;;;9.52;7.65;;;11.60;95.70;;;;;;4874918;29;20123;-86
2021/10/07 08:20:08;;;;;;;9.30;6.65;;;11.70;95.70;;;;;;4875730;29;20062;-84
2021/10/07 08:22:34;;;;;;;9.93;7.38;;;11.70;95.60;;;;;;4879010;29;20017;-84
2021/10/07 08:24:59;;;;;;;8.63;6.90;;;11.70;95.50;;;;;;4880462;29;20081;-86
2021/10/07 08:27:26;;;;;;;10.27;7.47;;;11.80;95.50;;;;;;4877276;29;20036;-84
2021/10/07 08:29:53;;;;;;;11.07;6.82;;;11.90;95.40;;;;;;4879801;29;20112;-85
2021/10/07 08:32:19;;;;;;;9.45;6.35;;;11.90;95.40;;;;;;4877912;29;20039;-85
2021/10/07 08:34:44;;;;;;;10.77;7.30;;;12.00;95.40;;;;;;4876846;29;20322;-85
2021/10/07 08:37:10;;;;;;;11.35;7.03;;;12.10;95.30;;;;;;4879227;29;20037;-84
2021/10/07 08:39:37;;;;;;;8.32;6.50;;;12.30;95.30;;;;;;4880610;29;20036;-86
2021/10/07 08:42:03;;;;;;;8.68;7.78;;;12.40;95.20;;;;;;4879472;29;20371;-85
2021/10/07 08:44:29;;;;;;;8.75;7.00;;;12.50;95.10;;;;;;4878081;29;20033;-86
2021/10/07 08:46:55;;;;;;;9.23;7.28;;;12.60;95.10;;;;;;4881774;29;20037;-86
2021/10/07 08:49:23;;;;;;;9.82;8.18;;;12.70;95.10;;;;;;4881999;29;20644;-85
2021/10/07 08:51:49;;;;;;;11.85;7.55;;;12.60;94.90;;;;;;4882949;29;20033;-87
2021/10/07 08:54:15;;;;;;;8.65;7.15;;;12.60;94.70;;;;;;4871205;29;20170;-86
2021/10/07 08:56:41;;;;;;;9.93;7.60;;;12.60;94.70;;;;;;4873480;29;20081;-84
2021/10/07 08:59:07;;;;;;;8.80;7.68;;;12.60;94.70;;;;;;4885058;29;20033;-86
2021/10/07 09:01:45;;;;;;;8.05;7.25;;;12.60;94.70;;;;;;4886720;29;20062;-86
2021/10/07 09:04:16;;;;;;;9.73;7.25;;;12.70;94.70;;;;;;4872028;29;20029;-85
2021/10/07 09:06:46;;;;;;;11.05;7.43;;;12.70;94.60;;;;;;4883817;29;20112;-85
2021/10/07 09:09:12;;;;;;;8.95;7.00;;;12.80;94.60;;;;;;4882919;29;20064;-84
2021/10/07 09:11:38;;;;;;;9.13;6.65;;;12.70;94.50;;;;;;4880409;29;20033;-83
2021/10/07 09:14:06;;;;;;;7.28;6.35;;;12.80;94.50;;;;;;4882357;29;20067;-86
2021/10/07 09:16:43;;;;;;;9.07;5.88;;;12.80;94.40;;;;;;4882962;29;20028;-85
2021/10/07 09:19:30;;;;;;;6.90;5.75;;;12.80;94.40;;;;;;4865518;29;20036;-86
2021/10/07 09:21:59;;;;;;;7.88;6.55;;;12.90;94.50;;;;;;4875258;29;20443;-86
2021/10/07 09:24:29;;;;;;;7.32;6.03;;;13.00;94.30;;;;;;4882137;29;20123;-85
2021/10/07 09:26:59;;;;;;;6.28;5.22;;;13.00;94.20;;;;;;4880852;29;20169;-85
2021/10/07 09:29:53;;;;;;;7.75;6.25;;;13.10;94.20;;;;;;4882564;29;20035;-85
2021/10/07 09:32:30;;;;;;;32.45;21.98;;;13.20;94.30;;;;;;4882620;29;20043;-84
2021/10/07 09:34:58;;;;;;;7.82;6.93;;;13.20;94.10;;;;;;4881824;29;20060;-85
2021/10/07 09:37:34;;;;;;;9.65;6.40;;;13.30;94.00;;;;;;4881146;29;20096;-84
2021/10/07 09:40:02;;;;;;;8.82;5.80;;;13.20;93.70;;;;;;4883225;29;20033;-85
2021/10/07 09:42:31;;;;;;;6.97;5.90;;;13.20;93.60;;;;;;4877980;29;20029;-85
2021/10/07 09:45:23;;;;;;;7.80;6.70;;;13.20;93.80;;;;;;4881465;29;20036;-84
2021/10/07 09:47:55;;;;;;;7.55;6.20;;;13.30;93.60;;;;;;4882807;29;20081;-84
2021/10/07 09:50:23;;;;;;;9.10;5.88;;;13.30;93.60;;;;;;4882626;29;20055;-85
2021/10/07 09:53:16;;;;;;;6.47;5.80;;;13.40;93.60;;;;;;4883080;29;20029;-86
2021/10/07 09:55:45;;;;;;;7.72;6.55;;;13.40;93.40;;;;;;4878592;29;20041;-85
2021/10/07 09:58:22;;;;;;;7.68;6.57;;;13.40;93.30;;;;;;4882109;29;20528;-83
2021/10/07 10:00:54;;;;;;;8.18;6.57;;;13.50;93.20;;;;;;4881440;29;20614;-84
2021/10/07 10:03:24;;;;;;;6.93;6.23;;;13.60;93.00;;;;;;4883382;29;20033;-85
2021/10/07 10:05:51;;;;;;;7.28;6.18;;;13.60;93.00;;;;;;4882212;29;20048;-84
2021/10/07 10:08:19;;;;;;;16.45;11.50;;;13.70;93.10;;;;;;4874896;29;20029;-85
2021/10/07 10:10:47;;;;;;;9.00;6.38;;;13.90;93.10;;;;;;4864302;29;20403;-86
2021/10/07 10:13:14;;;;;;;7.70;5.85;;;14.00;93.00;;;;;;4871326;29;20037;-86
2021/10/07 10:15:41;;;;;;;7.13;6.32;;;14.10;92.70;;;;;;4871258;29;20033;-85
2021/10/07 10:18:11;;;;;;;7.10;6.00;;;14.20;92.60;;;;;;4882998;29;20490;-84
2021/10/07 10:20:51;;;;;;;6.28;4.72;;;14.10;92.60;;;;;;4879852;29;20486;-86
2021/10/07 10:23:25;;;;;;;6.20;5.20;;;14.10;92.50;;;;;;4879428;29;20029;-84
2021/10/07 10:25:56;;;;;;;5.10;4.60;;;14.20;92.50;;;;;;4866583;29;20049;-86
2021/10/07 10:28:51;;;;;;;5.30;4.00;;;14.10;92.30;;;;;;4881560;29;20055;-84
2021/10/07 10:31:40;;;;;;;5.47;4.13;;;14.10;92.20;;;;;;4874130;29;20560;-83
2021/10/07 10:34:12;;;;;;;5.40;4.88;;;14.10;92.40;;;;;;4876429;29;20064;-85
2021/10/07 10:36:39;;;;;;;5.70;5.17;;;14.10;92.20;;;;;;4876651;29;20033;-86
2021/10/07 10:39:14;;;;;;;5.00;4.22;;;14.10;92.10;;;;;;4879622;29;20093;-85
2021/10/07 10:42:02;;;;;;;4.30;3.90;;;14.10;91.80;;;;;;4872714;29;20077;-86
2021/10/07 10:44:28;;;;;;;5.30;4.18;;;14.10;91.80;;;;;;4880091;29;20029;-85
2021/10/07 10:47:21;;;;;;;5.38;4.43;;;14.00;91.60;;;;;;4879669;29;20140;-86
2021/10/07 10:49:48;;;;;;;6.05;4.80;;;14.10;91.40;;;;;;4878860;29;20123;-86
2021/10/07 10:52:36;;;;;;;6.80;5.20;;;14.10;91.50;;;;;;4880905;29;20521;-85
2021/10/07 10:55:19;;;;;;;6.95;5.35;;;14.10;91.30;;;;;;4882260;29;20039;-84
2021/10/07 10:57:50;;;;;;;7.72;5.32;;;14.10;91.20;;;;;;4879489;29;20040;-86
2021/10/07 11:00:20;;;;;;;5.25;4.80;;;14.30;91.20;;;;;;4878658;29;20037;-86
2021/10/07 11:02:47;;;;;;;5.97;5.13;;;14.40;91.20;;;;;;4889254;29;20021;-86
2021/10/07 11:05:25;;;;;;;6.95;5.13;;;14.60;91.10;;;;;;4894026;29;20077;-86
2021/10/07 11:08:09;;;;;;;5.70;5.15;;;14.70;90.90;;;;;;4884572;29;20032;-86
2021/10/07 11:10:44;;;;;;;7.30;4.85;;;14.80;90.90;;;;;;4869892;29;20022;-83
2021/10/07 11:13:21;;;;;;;6.07;4.68;;;14.80;90.80;;;;;;4870485;29;20057;-85
2021/10/07 11:16:02;;;;;;;6.35;4.72;;;14.80;90.60;;;;;;4884454;29;20125;-86
2021/10/07 11:18:33;;;;;;;5.28;4.50;;;14.80;90.60;;;;;;4891237;29;20033;-86
2021/10/07 11:21:11;;;;;;;5.80;4.93;;;14.70;90.60;;;;;;4883567;29;20450;-86
2021/10/07 11:23:36;;;;;;;5.07;4.47;;;14.70;90.50;;;;;;4881686;29;20029;-86
2021/10/07 11:26:03;;;;;;;5.00;4.10;;;14.70;90.50;;;;;;4883088;29;20055;-86
2021/10/07 11:28:34;;;;;;;7.57;4.38;;;14.80;90.40;;;;;;4879489;29;20137;-86
2021/10/07 11:31:06;;;;;;;5.32;3.90;;;14.80;90.20;;;;;;4881501;29;20029;-86
2021/10/07 11:33:32;;;;;;;5.20;3.88;;;14.80;90.50;;;;;;4881244;29;20029;-86
2021/10/07 11:36:00;;;;;;;4.80;4.10;;;14.80;90.20;;;;;;4868245;29;20065;-86
2021/10/07 11:38:26;;;;;;;3.95;3.03;;;14.90;90.20;;;;;;4890322;23;20088;-86
2021/10/07 11:40:53;;;;;;;4.20;2.97;;;14.90;90.20;;;;;;4879187;29;20047;-87
2021/10/07 11:43:22;;;;;;;6.30;3.60;;;15.00;89.70;;;;;;4881092;29;20032;-86
2021/10/07 11:45:51;;;;;;;4.72;4.15;;;15.10;89.40;;;;;;4876463;29;20067;-86
2021/10/07 11:48:18;;;;;;;4.88;4.10;;;15.20;89.10;;;;;;4877132;29;20170;-86
2021/10/07 11:50:50;;;;;;;4.80;3.80;;;15.20;88.80;;;;;;4876659;29;20048;-85
2021/10/07 11:53:32;;;;;;;3.08;2.83;;;15.20;88.60;;;;;;4877438;29;20036;-84
2021/10/07 11:56:03;;;;;;;3.28;2.42;;;15.20;88.20;;;;;;4876778;29;20037;-87
2021/10/07 11:58:30;;;;;;;3.10;2.80;;;15.20;88.20;;;;;;4872119;29;20036;-86
2021/10/07 12:00:58;;;;;;;3.38;3.08;;;15.20;88.20;;;;;;4889016;29;20097;-87
2021/10/07 12:03:31;;;;;;;3.45;3.08;;;15.20;88.20;;;;;;4879086;29;20107;-87
2021/10/07 12:06:05;;;;;;;3.20;2.90;;;15.20;88.20;;;;;;4876993;29;20581;-88
2021/10/07 12:08:44;;;;;;;2.45;2.22;;;15.20;87.90;;;;;;4876683;29;20037;-85
2021/10/07 12:11:13;;;;;;;2.25;2.05;;;15.10;87.60;;;;;;4876833;29;20086;-87
2021/10/07 12:13:41;;;;;;;1.83;1.73;;;15.20;87.40;;;;;;4876561;29;20032;-85
2021/10/07 12:16:12;;;;;;;2.83;2.10;;;15.10;87.10;;;;;;4877957;29;20554;-85
2021/10/07 12:18:41;;;;;;;2.85;2.30;;;15.00;86.90;;;;;;4876139;29;20076;-86
2021/10/07 12:21:16;;;;;;;3.28;2.35;;;15.00;87.30;;;;;;4876440;29;20033;-85
2021/10/07 12:24:07;;;;;;;2.33;2.05;;;15.00;86.80;;;;;;4876087;29;20081;-88
2021/10/07 12:26:42;;;;;;;3.08;2.30;;;15.00;86.90;;;;;;4876804;29;20029;-88
2021/10/07 12:29:16;;;;;;;2.95;2.50;;;15.00;87.00;;;;;;4859414;29;20526;-85
2021/10/07 12:32:00;;;;;;;2.97;2.67;;;14.90;86.90;;;;;;4866286;29;20173;-86
2021/10/07 12:34:30;;;;;;;2.33;2.13;;;14.90;86.70;;;;;;4877466;29;20033;-85
2021/10/07 12:36:58;;;;;;;2.30;2.10;;;14.90;86.60;;;;;;4870115;29;20494;-88
2021/10/07 12:39:27;;;;;;;3.83;2.60;;;14.90;86.60;;;;;;4867931;29;20387;-89
2021/10/07 12:42:17;;;;;;;2.78;2.47;;;14.80;86.20;;;;;;4869190;29;20494;-88
2021/10/07 12:44:51;;;;;;;3.83;2.65;;;14.80;85.80;;;;;;4875816;29;20204;-88
2021/10/07 12:47:20;;;;;;;5.43;2.58;;;14.80;86.20;;;;;;4876290;29;20033;-88
2021/10/07 12:49:49;;;;;;;3.25;2.45;;;14.80;86.30;;;;;;4877084;29;20029;-88
2021/10/07 12:52:29;;;;;;;4.05;2.80;;;14.80;86.50;;;;;;4876616;29;20379;-89
2021/10/07 12:55:04;;;;;;;3.63;3.10;;;14.80;86.40;;;;;;4877494;29;20043;-89
2021/10/07 12:57:49;;;;;;;3.17;2.63;;;14.80;86.50;;;;;;4876054;29;20169;-89